Time;durP1;ratioP1;P1;durP2;ratioP2;P2;SDS_P1;SDS_P2;PMS_P1;PMS_P2;Temp;Humidity;BMP_temperature;BMP_pressure;BME280_temperature;BME280_humidity;BME280_pressure;Samples;Min_cycle;Max_cycle;Signal;HPM_P1;HPM_P2
2023/05/25 00:00:05;;;;;;;11.25;5.80;;;;;;;8.19;75.22;101752.44;7400752;19;20486;-69
2023/05/25 00:02:34;;;;;;;10.05;5.60;;;;;;;8.17;75.06;101755.06;7398126;19;20010;-69
2023/05/25 00:05:03;;;;;;;13.10;5.10;;;;;;;8.17;75.43;101759.44;7398315;19;20018;-69
2023/05/25 00:07:31;;;;;;;9.20;5.70;;;;;;;8.16;75.48;101755.91;7398551;19;20039;-69
2023/05/25 00:10:00;;;;;;;9.43;5.47;;;;;;;8.13;75.40;101755.91;7398452;19;20041;-69
2023/05/25 00:12:31;;;;;;;9.45;5.35;;;;;;;8.12;75.47;101760.25;7398347;19;20014;-68
2023/05/25 00:14:59;;;;;;;8.05;5.15;;;;;;;8.09;75.64;101760.25;7397596;19;20078;-69
2023/05/25 00:17:30;;;;;;;13.20;5.65;;;;;;;8.08;75.75;101770.72;7397794;19;20011;-69
2023/05/25 00:20:08;;;;;;;12.43;5.70;;;;;;;8.06;75.79;101765.47;7398784;19;20018;-69
2023/05/25 00:22:37;;;;;;;8.77;5.82;;;;;;;8.03;75.69;101764.59;7398274;19;20018;-70
2023/05/25 00:25:07;;;;;;;10.00;5.32;;;;;;;8.01;76.05;101761.06;7397290;19;20478;-68
2023/05/25 00:27:38;;;;;;;10.63;5.40;;;;;;;8.00;75.76;101762.84;7397845;19;20015;-73
2023/05/25 00:30:08;;;;;;;9.65;5.55;;;;;;;8.00;75.96;101755.00;7398621;19;20553;-68
2023/05/25 00:32:36;;;;;;;12.13;5.53;;;;;;;8.01;75.99;101763.69;7397374;19;20032;-69
2023/05/25 00:35:05;;;;;;;11.75;5.57;;;;;;;7.98;76.01;101762.81;7397886;19;20019;-69
2023/05/25 00:37:33;;;;;;;11.18;6.00;;;;;;;7.97;76.23;101766.31;7398703;19;20031;-69
2023/05/25 00:40:03;;;;;;;8.93;5.30;;;;;;;7.98;76.20;101765.41;7400480;19;20014;-69
2023/05/25 00:42:31;;;;;;;10.57;5.85;;;;;;;7.99;76.25;101764.56;7400598;19;20022;-69
2023/05/25 00:45:03;;;;;;;11.60;5.43;;;;;;;7.99;76.61;101769.78;7398107;19;20087;-69
2023/05/25 00:47:31;;;;;;;11.65;5.97;;;;;;;8.03;76.39;101769.81;7398472;19;20015;-69
2023/05/25 00:50:00;;;;;;;7.82;5.65;;;;;;;8.03;76.46;101770.66;7400140;19;20493;-69
2023/05/25 00:52:29;;;;;;;15.30;5.85;;;;;;;8.07;76.63;101772.44;7398156;19;20014;-68
2023/05/25 00:55:01;;;;;;;12.13;5.45;;;;;;;8.09;76.76;101775.06;7398012;19;20384;-69
2023/05/25 00:57:33;;;;;;;18.30;6.40;;;;;;;8.11;76.80;101761.16;7399756;19;20015;-69
2023/05/25 01:00:07;;;;;;;16.25;5.82;;;;;;;8.11;76.87;101760.25;7399910;19;20037;-70
2023/05/25 01:02:36;;;;;;;14.32;5.45;;;;;;;8.15;77.07;101759.41;7398327;19;20010;-69
2023/05/25 01:05:10;;;;;;;12.23;6.47;;;;;;;8.17;77.20;101762.91;7398289;19;20018;-69
2023/05/25 01:07:40;;;;;;;;;;;;;;;8.20;77.41;101762.94;7400060;19;20037;-68
2023/05/25 01:10:12;;;;;;;12.80;6.28;;;;;;;8.19;76.71;101763.78;7398183;19;19936;-69
2023/05/25 01:12:43;;;;;;;9.68;4.85;;;;;;;8.20;76.89;101756.81;7397483;19;20031;-66
2023/05/25 01:15:15;;;;;;;10.23;6.00;;;;;;;8.22;77.20;101765.53;7394640;19;20022;-68
2023/05/25 01:17:44;;;;;;;7.68;5.18;;;;;;;8.23;77.13;101762.94;7397970;19;20018;-67
2023/05/25 01:20:13;;;;;;;11.20;6.32;;;;;;;8.23;77.23;101762.94;7397757;19;20015;-68
2023/05/25 01:22:50;;;;;;;12.55;5.85;;;;;;;8.24;77.33;101763.78;7397948;19;20014;-68
2023/05/25 01:25:26;;;;;;;12.52;5.95;;;;;;;8.25;77.25;101762.94;7395710;19;20432;-68
2023/05/25 01:28:01;;;;;;;13.63;6.70;;;;;;;8.25;77.58;101760.31;7398373;19;20411;-68
2023/05/25 01:30:32;;;;;;;12.00;6.05;;;;;;;8.26;77.69;101764.69;7397476;19;20502;-68
2023/05/25 01:33:01;;;;;;;16.25;6.07;;;;;;;8.25;77.67;101761.22;7397441;19;20019;-68
2023/05/25 01:35:31;;;;;;;10.43;6.05;;;;;;;8.23;77.57;101765.53;7397636;19;20024;-68
2023/05/25 01:38:03;;;;;;;11.15;5.80;;;;;;;8.22;77.87;101765.53;7397236;19;20477;-68
2023/05/25 01:40:31;;;;;;;9.98;6.00;;;;;;;8.21;77.85;101767.25;7399036;19;20018;-68
2023/05/25 01:43:00;;;;;;;10.35;6.25;;;;;;;8.19;77.86;101762.91;7399820;19;20524;-69
2023/05/25 01:45:31;;;;;;;9.02;5.85;;;;;;;8.18;78.12;101763.78;7397869;19;20018;-68
2023/05/25 01:48:07;;;;;;;9.57;5.93;;;;;;;8.13;78.09;101761.16;7398090;19;20034;-67
2023/05/25 01:50:41;;;;;;;11.40;6.00;;;;;;;8.11;78.27;101761.16;7396858;19;20019;-68
2023/05/25 01:53:17;;;;;;;8.88;6.13;;;;;;;8.07;78.20;101755.88;7397036;19;20032;-69
2023/05/25 01:55:52;;;;;;;11.05;6.15;;;;;;;8.04;78.22;101753.25;7396711;19;20477;-69
2023/05/25 01:58:22;;;;;;;12.00;6.53;;;;;;;7.99;78.32;101754.09;7396637;19;20418;-69
2023/05/25 02:00:53;;;;;;;12.82;6.80;;;;;;;7.96;78.71;101754.09;7395116;19;20025;-69
2023/05/25 02:03:21;;;;;;;12.30;6.88;;;;;;;7.91;78.76;101752.31;7396412;19;20018;-69
2023/05/25 02:05:50;;;;;;;11.48;6.05;;;;;;;7.87;78.71;101761.88;7394820;19;20090;-69
2023/05/25 02:08:21;;;;;;;8.75;5.70;;;;;;;7.81;78.78;101757.50;7396157;19;20015;-69
2023/05/25 02:10:50;;;;;;;14.35;6.22;;;;;;;7.77;78.82;101760.06;7396109;19;20015;-69
2023/05/25 02:13:18;;;;;;;9.88;5.90;;;;;;;7.73;78.97;101763.53;7395208;19;20011;-69
2023/05/25 02:15:47;;;;;;;8.75;5.80;;;;;;;7.69;79.16;101759.16;7396021;19;20509;-69
2023/05/25 02:18:16;;;;;;;11.25;6.03;;;;;;;7.64;79.21;101766.97;7394082;19;20027;-69
2023/05/25 02:20:46;;;;;;;16.98;7.85;;;;;;;7.59;79.11;101760.81;7395553;19;20014;-69
2023/05/25 02:23:21;;;;;;;9.48;6.18;;;;;;;7.54;79.40;101758.19;7395220;19;20019;-69
2023/05/25 02:25:53;;;;;;;10.88;6.53;;;;;;;7.49;79.38;101758.16;7394390;19;20027;-69
2023/05/25 02:28:28;;;;;;;8.35;6.18;;;;;;;7.44;79.56;101753.75;7395633;19;20018;-69
2023/05/25 02:30:56;;;;;;;14.40;7.68;;;;;;;7.40;79.59;101765.03;7395350;19;20014;-68
2023/05/25 02:33:25;;;;;;;11.20;6.50;;;;;;;7.34;79.80;101758.91;7394940;19;20085;-68
2023/05/25 02:35:54;;;;;;;9.18;6.38;;;;;;;7.30;79.76;101754.53;7395728;19;20022;-68
2023/05/25 02:38:22;;;;;;;12.98;6.57;;;;;;;7.26;80.06;101755.34;7393556;19;20385;-68
2023/05/25 02:40:53;;;;;;;11.10;7.05;;;;;;;7.22;80.01;101748.38;7395232;19;20035;-68
2023/05/25 02:43:21;;;;;;;10.18;6.28;;;;;;;7.20;80.26;101755.31;7395052;19;20364;-68
2023/05/25 02:45:50;;;;;;;9.38;6.63;;;;;;;7.15;80.03;101757.91;7393934;19;20082;-68
2023/05/25 02:48:18;;;;;;;10.52;5.95;;;;;;;7.11;80.22;101756.09;7395067;19;20018;-68
2023/05/25 02:50:47;;;;;;;10.85;6.05;;;;;;;7.05;80.37;101756.06;7394815;19;20015;-68
2023/05/25 02:53:15;;;;;;;9.80;5.93;;;;;;;7.05;80.18;101757.78;7395880;19;20027;-68
2023/05/25 02:55:44;;;;;;;12.27;6.45;;;;;;;7.01;80.21;101756.88;7409168;19;20022;-68
2023/05/25 02:58:15;;;;;;;10.38;6.25;;;;;;;6.96;80.41;101762.06;7408947;19;20010;-68
2023/05/25 03:00:45;;;;;;;14.07;7.00;;;;;;;6.92;80.59;101764.63;7409049;19;20426;-68
2023/05/25 03:03:14;;;;;;;11.50;6.72;;;;;;;6.86;80.39;101762.81;7407830;19;20014;-68
2023/05/25 03:05:42;;;;;;;13.95;6.97;;;;;;;6.84;80.68;101764.56;7407235;19;20027;-68
2023/05/25 03:08:11;;;;;;;13.32;6.97;;;;;;;6.81;80.70;101764.50;7409036;19;20107;-68
2023/05/25 03:10:39;;;;;;;12.00;6.82;;;;;;;6.78;80.82;101767.09;7408404;19;20482;-68
2023/05/25 03:13:08;;;;;;;14.15;6.35;;;;;;;6.75;80.79;101773.16;7405990;19;20014;-67
2023/05/25 03:15:39;;;;;;;11.40;7.72;;;;;;;6.74;80.83;101773.16;7408906;19;20011;-68
2023/05/25 03:18:07;;;;;;;11.25;7.70;;;;;;;6.71;81.04;101775.69;7408630;19;20481;-68
2023/05/25 03:20:36;;;;;;;12.52;6.85;;;;;;;6.68;80.97;101774.84;7406633;19;20074;-68
2023/05/25 03:23:04;;;;;;;10.25;6.90;;;;;;;6.66;81.32;101775.66;7408243;19;20035;-68
2023/05/25 03:25:33;;;;;;;13.07;7.20;;;;;;;6.64;81.39;101782.59;7406914;19;20429;-68
2023/05/25 03:28:01;;;;;;;11.70;7.15;;;;;;;6.62;81.33;101782.59;7408075;19;20018;-68
2023/05/25 03:30:30;;;;;;;11.13;6.40;;;;;;;6.61;81.29;101783.44;7408312;19;20079;-68
2023/05/25 03:33:01;;;;;;;13.55;7.80;;;;;;;6.59;81.66;101779.94;7408194;19;20049;-69
2023/05/25 03:35:30;;;;;;;10.52;6.95;;;;;;;6.58;81.42;101783.38;7408436;19;20078;-69
2023/05/25 03:37:59;;;;;;;14.27;7.78;;;;;;;6.57;81.82;101779.06;7407921;19;20011;-69
2023/05/25 03:40:27;;;;;;;11.00;7.47;;;;;;;6.57;81.75;101785.97;7408025;19;20022;-69
2023/05/25 03:42:55;;;;;;;16.23;7.80;;;;;;;6.55;82.04;101783.38;7407626;19;20422;-69
2023/05/25 03:45:24;;;;;;;13.43;7.50;;;;;;;6.54;82.08;101788.56;7406299;19;20011;-68
2023/05/25 03:47:52;;;;;;;12.52;7.40;;;;;;;6.50;82.09;101783.31;7407999;19;20022;-68
2023/05/25 03:50:23;;;;;;;15.85;9.23;;;;;;;6.52;82.28;101788.53;7405806;19;20090;-68
2023/05/25 03:52:52;;;;;;;11.68;7.90;;;;;;;6.51;82.19;101781.59;7408806;19;20050;-68
2023/05/25 03:55:21;;;;;;;9.77;7.65;;;;;;;6.51;82.35;101787.66;7407897;19;20018;-69
2023/05/25 03:57:49;;;;;;;14.65;7.80;;;;;;;6.54;82.39;101793.78;7407942;19;20025;-69
2023/05/25 04:00:18;;;;;;;12.27;7.75;;;;;;;6.54;82.47;101794.66;7407593;19;20070;-69
2023/05/25 04:02:46;;;;;;;15.15;7.78;;;;;;;6.56;82.46;101792.03;7407398;19;20389;-68
2023/05/25 04:05:15;;;;;;;15.40;9.48;;;;;;;6.57;82.90;101791.19;7403684;19;20032;-68
2023/05/25 04:07:46;;;;;;;15.18;8.27;;;;;;;6.57;82.75;101792.09;7397951;19;20011;-69
2023/05/25 04:10:14;;;;;;;13.68;9.18;;;;;;;6.60;83.27;101791.25;7401116;19;20014;-69
2023/05/25 04:12:43;;;;;;;16.58;8.98;;;;;;;6.61;83.19;101795.56;7399517;19;20371;-68
2023/05/25 04:15:13;;;;;;;12.75;9.00;;;;;;;6.64;83.60;101795.63;7397344;19;20011;-68
2023/05/25 04:17:41;;;;;;;11.75;8.45;;;;;;;6.67;83.61;101793.03;7397346;19;20010;-68
2023/05/25 04:20:11;;;;;;;14.05;8.85;;;;;;;6.69;84.16;101792.22;7399697;19;20031;-68
2023/05/25 04:22:40;;;;;;;19.35;9.50;;;;;;;6.73;83.80;101798.34;7399194;19;20351;-68
2023/05/25 04:25:12;;;;;;;18.17;9.98;;;;;;;6.77;84.78;101801.84;7397266;19;20018;-68
2023/05/25 04:27:41;;;;;;;16.85;10.57;;;;;;;6.80;84.32;101804.53;7398794;19;20033;-67
2023/05/25 04:30:10;;;;;;;17.85;9.57;;;;;;;6.84;84.70;101811.50;7400285;19;20023;-68
2023/05/25 04:32:39;;;;;;;19.27;10.27;;;;;;;6.88;86.06;101815.03;7399365;19;20091;-68
2023/05/25 04:35:08;;;;;;;22.45;11.02;;;;;;;6.94;86.04;101817.72;7398698;19;20019;-68
2023/05/25 04:37:39;;;;;;;22.42;11.95;;;;;;;6.98;87.57;101819.47;7398532;19;20363;-68
2023/05/25 04:40:13;;;;;;;21.27;11.80;;;;;;;7.01;87.50;101817.78;7398673;19;20019;-67
2023/05/25 04:42:41;;;;;;;19.77;12.48;;;;;;;7.07;86.77;101823.91;7398900;19;20074;-69
2023/05/25 04:45:11;;;;;;;20.88;11.98;;;;;;;7.12;86.99;101832.66;7397042;19;20373;-68
2023/05/25 04:47:39;;;;;;;18.23;11.18;;;;;;;7.18;87.96;101837.94;7396485;19;20078;-68
2023/05/25 04:50:10;;;;;;;19.20;11.55;;;;;;;7.21;88.53;101837.97;7396131;19;20034;-68
2023/05/25 04:52:38;;;;;;;17.60;10.57;;;;;;;7.25;88.07;101842.34;7398836;19;20015;-69
2023/05/25 04:55:08;;;;;;;20.80;10.43;;;;;;;7.30;88.34;101839.78;7398184;19;20024;-68
2023/05/25 04:57:39;;;;;;;18.10;11.45;;;;;;;7.34;87.48;101841.56;7398113;19;20014;-69
2023/05/25 05:00:11;;;;;;;21.70;11.10;;;;;;;7.38;88.54;101847.69;7397217;19;20082;-69
2023/05/25 05:02:40;;;;;;;22.42;12.15;;;;;;;7.41;87.83;101845.13;7397049;19;20090;-68
2023/05/25 05:05:09;;;;;;;18.35;11.82;;;;;;;7.45;88.82;101839.94;7397017;19;20014;-69
2023/05/25 05:07:37;;;;;;;22.00;12.35;;;;;;;7.50;88.96;101843.44;7396960;19;20040;-68
2023/05/25 05:10:07;;;;;;;21.75;12.38;;;;;;;7.55;88.97;101838.28;7397336;19;20014;-68
2023/05/25 05:12:35;;;;;;;22.10;12.30;;;;;;;7.60;89.35;101839.19;7397603;19;20070;-68
2023/05/25 05:15:07;;;;;;;24.88;12.25;;;;;;;7.66;90.30;101839.25;7395213;19;20398;-68
2023/05/25 05:17:36;;;;;;;20.13;11.68;;;;;;;7.72;90.61;101841.03;7396238;19;20158;-68
2023/05/25 05:20:06;;;;;;;18.95;12.50;;;;;;;7.78;89.93;101829.75;7397721;19;20035;-68
2023/05/25 05:22:35;;;;;;;24.50;14.45;;;;;;;7.85;90.00;101828.94;7395642;19;20030;-68
2023/05/25 05:25:03;;;;;;;24.27;12.07;;;;;;;7.92;89.58;101827.22;7396388;19;20022;-68
2023/05/25 05:27:32;;;;;;;21.60;12.80;;;;;;;8.00;89.47;101830.78;7397439;19;20082;-68
2023/05/25 05:30:00;;;;;;;22.48;13.45;;;;;;;8.06;89.81;101830.81;7397389;19;20074;-68
2023/05/25 05:32:31;;;;;;;21.48;13.45;;;;;;;8.14;89.45;101834.34;7395413;19;20036;-67
2023/05/25 05:35:00;;;;;;;25.90;13.05;;;;;;;8.23;89.25;101838.75;7395119;19;20078;-68
2023/05/25 05:37:28;;;;;;;26.20;14.13;;;;;;;8.31;89.81;101844.00;7397280;19;20029;-68
2023/05/25 05:39:56;;;;;;;26.33;13.80;;;;;;;8.40;89.90;101837.97;7396724;19;20081;-68
2023/05/25 05:42:25;;;;;;;31.27;14.23;;;;;;;8.48;89.26;101839.78;7394722;19;20553;-69
2023/05/25 05:44:54;;;;;;;23.08;12.90;;;;;;;8.59;89.46;101842.44;7394642;19;20022;-68
2023/05/25 05:47:22;;;;;;;26.40;13.60;;;;;;;8.68;90.66;101840.72;7395205;19;20028;-68
2023/05/25 05:49:53;;;;;;;21.10;13.68;;;;;;;8.76;90.03;101842.50;7396255;19;20082;-68
2023/05/25 05:52:21;;;;;;;27.08;14.68;;;;;;;8.85;89.99;101841.66;7395563;19;20015;-69
2023/05/25 05:54:50;;;;;;;21.88;13.80;;;;;;;8.95;89.71;101848.66;7395250;19;20022;-68
2023/05/25 05:57:18;;;;;;;24.30;13.27;;;;;;;9.04;89.07;101845.19;7394932;19;20011;-69
2023/05/25 05:59:47;;;;;;;27.63;14.32;;;;;;;9.12;89.51;101846.09;7396838;19;20086;-68
2023/05/25 06:02:15;;;;;;;29.98;14.73;;;;;;;9.20;88.96;101846.13;7396359;19;20078;-68
2023/05/25 06:04:44;;;;;;;32.20;13.60;;;;;;;9.29;88.94;101843.50;7394562;19;20082;-68
2023/05/25 06:07:15;;;;;;;22.90;14.00;;;;;;;9.38;88.80;101850.50;7395618;19;20454;-68
2023/05/25 06:09:43;;;;;;;25.73;14.75;;;;;;;9.48;89.45;101850.47;7395923;19;20078;-68
2023/05/25 06:12:12;;;;;;;32.75;15.40;;;;;;;9.58;88.90;101847.03;7396064;19;20026;-70
2023/05/25 06:14:41;;;;;;;25.90;14.48;;;;;;;9.67;88.91;101853.97;7393842;19;20083;-67
2023/05/25 06:17:09;;;;;;;29.42;12.70;;;;;;;9.75;88.95;101853.09;7395678;19;20018;-68
2023/05/25 06:19:37;;;;;;;25.40;14.65;;;;;;;9.85;89.01;101859.22;7395758;19;20427;-68
2023/05/25 06:22:06;;;;;;;26.98;14.05;;;;;;;9.98;88.97;101869.69;7393820;19;20074;-67
2023/05/25 06:24:37;;;;;;;23.25;13.60;;;;;;;10.08;88.59;101860.94;7393539;19;20498;-68
2023/05/25 06:27:06;;;;;;;25.17;13.93;;;;;;;10.18;88.41;101867.06;7392767;19;20015;-68
2023/05/25 06:29:34;;;;;;;31.08;14.18;;;;;;;10.27;88.76;101867.91;7392127;19;20074;-69
2023/05/25 06:32:03;;;;;;;23.38;13.77;;;;;;;10.38;88.33;101862.66;7393712;19;20010;-69
2023/05/25 06:34:31;;;;;;;27.95;15.02;;;;;;;10.48;87.87;101860.00;7393556;19;20078;-68
2023/05/25 06:37:00;;;;;;;38.50;15.85;;;;;;;10.56;88.40;101872.22;7395414;19;20014;-69
2023/05/25 06:39:29;;;;;;;29.00;14.80;;;;;;;10.66;87.75;101880.91;7393714;19;20014;-69
2023/05/25 06:42:00;;;;;;;27.77;14.18;;;;;;;10.74;87.92;101867.75;7393234;19;20021;-69
2023/05/25 06:44:28;;;;;;;29.95;15.02;;;;;;;10.85;87.42;101876.47;7393715;19;20041;-69
2023/05/25 06:46:57;;;;;;;28.42;14.40;;;;;;;10.95;87.16;101881.69;7393632;19;20024;-69
2023/05/25 06:49:25;;;;;;;28.02;16.45;;;;;;;11.03;87.45;101883.41;7394488;19;20016;-68
2023/05/25 06:51:54;;;;;;;26.42;15.18;;;;;;;11.14;87.05;101878.06;7393275;19;20104;-67
2023/05/25 06:54:22;;;;;;;29.25;16.67;;;;;;;11.23;87.10;101882.38;7392766;19;20508;-68
2023/05/25 06:56:51;;;;;;;29.15;16.55;;;;;;;11.34;86.62;101884.97;7393441;19;20011;-67
2023/05/25 06:59:22;;;;;;;28.05;16.05;;;;;;;11.42;86.64;101880.50;7394434;19;20019;-67
2023/05/25 07:01:50;;;;;;;28.02;16.30;;;;;;;11.52;85.89;101879.56;7393120;19;20485;-67
2023/05/25 07:04:19;;;;;;;30.83;16.10;;;;;;;11.61;85.70;101877.75;7393047;19;20021;-68
2023/05/25 07:06:47;;;;;;;28.02;15.77;;;;;;;11.68;85.13;101872.44;7392625;19;20027;-68
2023/05/25 07:09:16;;;;;;;25.27;14.90;;;;;;;11.76;84.91;101877.63;7394444;19;20015;-69
2023/05/25 07:11:44;;;;;;;27.35;14.05;;;;;;;11.86;84.64;101883.69;7394138;19;20032;-67
2023/05/25 07:14:13;;;;;;;21.10;14.23;;;;;;;11.94;84.24;101873.09;7391516;19;20067;-68
2023/05/25 07:16:44;;;;;;;29.48;13.93;;;;;;;12.02;83.64;101880.06;7392079;19;20014;-68
2023/05/25 07:19:12;;;;;;;22.55;13.73;;;;;;;12.11;83.63;101881.72;7394681;19;20011;-68
2023/05/25 07:21:41;;;;;;;30.55;15.05;;;;;;;12.21;83.11;101880.75;7394448;19;20015;-68
2023/05/25 07:24:09;;;;;;;28.42;14.82;;;;;;;12.30;82.86;101879.78;7392224;19;20426;-68
2023/05/25 07:26:39;;;;;;;24.23;14.05;;;;;;;12.38;82.30;101877.94;7391117;19;20477;-68
2023/05/25 07:29:07;;;;;;;29.60;14.35;;;;;;;12.48;81.95;101878.69;7393516;19;20018;-68
2023/05/25 07:31:36;;;;;;;26.05;13.70;;;;;;;12.60;81.75;101880.31;7393695;19;20082;-67
2023/05/25 07:34:07;;;;;;;29.13;13.48;;;;;;;12.69;81.27;101887.22;7394395;19;20082;-68
2023/05/25 07:36:35;;;;;;;28.45;12.65;;;;;;;12.79;80.87;101887.97;7394218;19;20031;-68
2023/05/25 07:39:03;;;;;;;26.02;12.32;;;;;;;12.87;80.10;101881.72;7393670;19;20025;-68
2023/05/25 07:41:32;;;;;;;22.52;13.10;;;;;;;12.97;79.62;101884.25;7399546;19;20011;-68
2023/05/25 07:44:00;;;;;;;19.67;11.50;;;;;;;13.06;79.51;101883.25;7399214;19;20018;-68
2023/05/25 07:46:29;;;;;;;24.40;11.50;;;;;;;13.13;78.45;101876.97;7397156;19;20017;-68
2023/05/25 07:48:58;;;;;;;24.42;11.25;;;;;;;13.24;77.99;101880.31;7400609;19;20045;-67
2023/05/25 07:51:31;;;;;;;18.20;10.35;;;;;;;13.35;77.90;101885.44;7396801;19;20373;-71
2023/05/25 07:54:00;;;;;;;18.23;10.80;;;;;;;13.46;77.04;101886.19;7398982;19;20576;-68
2023/05/25 07:56:28;;;;;;;25.88;11.18;;;;;;;13.54;75.34;101885.22;7400924;19;20021;-68
2023/05/25 07:58:58;;;;;;;18.33;9.00;;;;;;;13.62;74.93;101885.94;7400369;19;20014;-68
2023/05/25 08:01:27;;;;;;;18.70;7.90;;;;;;;13.72;74.36;101889.31;7401103;19;20015;-69
2023/05/25 08:03:56;;;;;;;18.00;8.43;;;;;;;13.81;73.59;101887.41;7399012;19;20019;-67
2023/05/25 08:06:24;;;;;;;15.68;8.75;;;;;;;13.92;72.88;101889.81;7399556;19;20015;-68
2023/05/25 08:08:56;;;;;;;21.10;10.82;;;;;;;14.00;70.91;101881.78;7400039;19;20014;-68
2023/05/25 08:11:26;;;;;;;16.58;7.75;;;;;;;14.08;69.86;101879.00;7400570;19;20041;-68
2023/05/25 08:13:55;;;;;;;18.08;7.80;;;;;;;14.20;69.92;101881.41;7398007;19;20010;-68
2023/05/25 08:16:30;;;;;;;18.98;7.07;;;;;;;14.33;68.98;101874.13;7400732;19;20019;-68
2023/05/25 08:19:00;;;;;;;15.77;5.75;;;;;;;14.46;67.51;101869.50;7400051;19;20450;-69
2023/05/25 08:21:28;;;;;;;13.70;6.20;;;;;;;14.61;67.18;101874.47;7399975;19;20432;-69
2023/05/25 08:24:02;;;;;;;10.88;5.30;;;;;;;14.75;66.10;101871.56;7398870;19;20021;-69
2023/05/25 08:26:39;;;;;;;12.57;4.47;;;;;;;14.89;63.66;101873.06;7399628;19;20018;-69
2023/05/25 08:29:08;;;;;;;15.55;4.82;;;;;;;15.00;63.87;101876.31;7399814;19;20035;-69
2023/05/25 08:31:37;;;;;;;10.07;5.30;;;;;;;15.10;63.32;101872.56;7399717;19;20074;-68
2023/05/25 08:34:05;;;;;;;15.55;6.40;;;;;;;15.21;63.20;101874.09;7398377;19;20025;-69
2023/05/25 08:36:34;;;;;;;14.93;4.22;;;;;;;15.31;62.82;101870.31;7399265;19;20017;-69
2023/05/25 08:39:07;;;;;;;12.05;4.30;;;;;;;15.42;60.98;101872.72;7399360;19;20021;-67
2023/05/25 08:41:37;;;;;;;17.25;5.18;;;;;;;15.53;61.57;101880.38;7397471;19;20037;-68
2023/05/25 08:44:07;;;;;;;14.15;5.05;;;;;;;15.59;61.02;101878.44;7397746;19;20089;-69
2023/05/25 08:46:36;;;;;;;12.50;4.97;;;;;;;15.64;61.32;101876.59;7397903;19;20021;-68
2023/05/25 08:49:10;;;;;;;15.07;4.60;;;;;;;15.68;60.54;101874.69;7396781;19;20025;-68
2023/05/25 08:51:39;;;;;;;9.88;4.60;;;;;;;15.71;60.41;101879.03;7397013;19;20541;-68
2023/05/25 08:54:14;;;;;;;12.25;4.72;;;;;;;15.73;58.16;101882.53;7396146;19;20014;-68
2023/05/25 08:56:50;;;;;;;10.55;3.88;;;;;;;15.80;59.14;101884.97;7399149;19;20023;-68
2023/05/25 08:59:33;;;;;;;12.80;4.13;;;;;;;15.88;57.92;101876.88;7399171;19;20014;-68
2023/05/25 09:02:13;;;;;;;11.30;4.15;;;;;;;15.94;58.01;101882.00;7399337;19;20014;-68
2023/05/25 09:04:42;;;;;;;12.43;4.43;;;;;;;16.00;58.35;101882.75;7396671;19;20038;-69
2023/05/25 09:07:11;;;;;;;9.00;4.05;;;;;;;16.04;58.32;101876.50;7395561;19;20014;-68
2023/05/25 09:09:43;;;;;;;9.02;3.85;;;;;;;16.10;56.93;101874.53;7399819;19;20046;-69
2023/05/25 09:12:12;;;;;;;11.32;4.30;;;;;;;16.20;56.63;101884.88;7398577;19;20090;-70
2023/05/25 09:14:44;;;;;;;10.35;4.63;;;;;;;16.31;57.09;101881.94;7395862;19;20011;-70
2023/05/25 09:17:14;;;;;;;8.38;4.60;;;;;;;16.38;55.96;101884.38;7398097;19;20045;-68
2023/05/25 09:19:42;;;;;;;10.45;4.10;;;;;;;16.45;56.21;101888.59;7395647;19;20018;-68
2023/05/25 09:22:11;;;;;;;9.52;3.65;;;;;;;16.56;55.51;101880.31;7397554;19;20015;-71
2023/05/25 09:24:43;;;;;;;9.77;3.95;;;;;;;16.65;55.21;101886.28;7396089;19;20384;-69
2023/05/25 09:27:13;;;;;;;9.25;3.92;;;;;;;16.72;53.64;101887.81;7396635;19;20090;-67
2023/05/25 09:29:42;;;;;;;11.63;3.95;;;;;;;16.83;54.28;101895.47;7397775;19;20025;-67
2023/05/25 09:32:11;;;;;;;9.75;4.65;;;;;;;16.94;53.82;101893.41;7395308;19;20018;-68
2023/05/25 09:34:39;;;;;;;8.88;3.88;;;;;;;17.07;53.05;101889.47;7395249;19;20018;-68
2023/05/25 09:37:17;;;;;;;13.38;4.95;;;;;;;17.25;52.55;101890.69;7396646;19;20373;-67
2023/05/25 09:39:49;;;;;;;9.73;3.80;;;;;;;17.40;51.99;101889.31;7397695;19;20015;-67
2023/05/25 09:42:18;;;;;;;11.05;4.30;;;;;;;17.53;52.23;101883.63;7397428;19;20339;-67
2023/05/25 09:44:47;;;;;;;9.45;3.90;;;;;;;17.60;51.53;101887.78;7395088;19;20035;-68
2023/05/25 09:47:16;;;;;;;7.60;3.65;;;;;;;17.60;51.06;101890.44;7395464;19;20017;-68
2023/05/25 09:49:48;;;;;;;10.32;4.03;;;;;;;17.59;51.81;101892.25;7397034;19;20015;-68
2023/05/25 09:52:17;;;;;;;9.02;3.90;;;;;;;17.59;51.40;101889.59;7395526;19;20026;-68
2023/05/25 09:54:49;;;;;;;11.88;3.85;;;;;;;17.57;50.42;101898.50;7394786;19;20544;-68
2023/05/25 09:57:21;;;;;;;8.95;4.03;;;;;;;17.55;50.95;101887.97;7396720;19;20383;-67
2023/05/25 09:59:49;;;;;;;9.57;3.53;;;;;;;17.58;50.93;101892.31;7397046;19;20036;-70
2023/05/25 10:02:18;;;;;;;10.65;4.28;;;;;;;17.62;50.85;101898.38;7396580;19;20021;-68
2023/05/25 10:04:47;;;;;;;12.35;4.05;;;;;;;17.62;50.10;101898.38;7394010;19;20498;-68
2023/05/25 10:07:16;;;;;;;13.15;4.35;;;;;;;17.55;49.15;101898.56;7395382;19;20014;-68
2023/05/25 10:09:52;;;;;;;12.20;4.30;;;;;;;17.56;49.64;101888.81;7395702;19;20082;-69
2023/05/25 10:12:25;;;;;;;13.68;4.57;;;;;;;17.58;48.88;101895.81;7396036;19;20541;-68
2023/05/25 10:15:01;;;;;;;11.30;3.60;;;;;;;17.64;49.60;101896.53;7394510;19;20051;-68
2023/05/25 10:17:33;;;;;;;11.90;3.78;;;;;;;17.66;47.73;101897.34;7396553;19;20502;-69
2023/05/25 10:20:05;;;;;;;8.77;4.07;;;;;;;17.69;48.61;101891.94;7396067;19;20018;-68
2023/05/25 10:22:37;;;;;;;8.45;3.78;;;;;;;17.74;48.64;101895.28;7393747;19;20471;-69
2023/05/25 10:25:11;;;;;;;7.32;3.85;;;;;;;17.85;47.68;101890.47;7394124;19;20020;-69
2023/05/25 10:27:42;;;;;;;7.88;4.00;;;;;;;17.98;47.54;101887.44;7393457;19;20078;-69
2023/05/25 10:30:12;;;;;;;9.88;4.30;;;;;;;18.12;47.50;101908.22;7395471;19;20078;-68
2023/05/25 10:32:42;;;;;;;12.77;4.30;;;;;;;18.16;47.64;101894.78;7394301;19;20509;-68
2023/05/25 10:35:12;;;;;;;11.32;3.83;;;;;;;18.18;48.03;101897.38;7395194;19;20082;-68
2023/05/25 10:37:41;;;;;;;7.78;3.90;;;;;;;18.18;47.95;101897.38;7393264;19;20014;-68
2023/05/25 10:40:14;;;;;;;6.40;3.58;;;;;;;18.17;47.60;101895.63;7395690;19;20031;-68
2023/05/25 10:42:43;;;;;;;12.32;4.35;;;;;;;18.18;48.01;101886.75;7395659;19;20044;-68
2023/05/25 10:45:12;;;;;;;8.60;3.92;;;;;;;18.25;47.92;101885.63;7395045;19;20082;-68
2023/05/25 10:47:45;;;;;;;9.15;4.78;;;;;;;18.33;47.11;101888.84;7393771;19;20078;-68
2023/05/25 10:50:25;;;;;;;10.57;3.78;;;;;;;18.43;45.75;101891.19;7393671;19;20370;-70
2023/05/25 10:53:02;;;;;;;11.30;4.68;;;;;;;18.53;46.87;101879.28;7393004;19;20485;-68
2023/05/25 10:55:44;;;;;;;10.63;4.53;;;;;;;18.66;45.56;101874.38;7394279;19;20042;-68
2023/05/25 10:58:14;;;;;;;7.38;4.00;;;;;;;18.71;46.09;101873.25;7394469;19;20078;-68
2023/05/25 11:00:43;;;;;;;8.38;4.25;;;;;;;18.69;45.79;101885.78;7392962;19;20015;-69
2023/05/25 11:03:12;;;;;;;9.00;4.15;;;;;;;18.61;45.88;101874.53;7394301;19;20088;-68
2023/05/25 11:05:41;;;;;;;9.75;4.65;;;;;;;18.53;46.11;101876.63;7394050;19;20078;-69
2023/05/25 11:08:11;;;;;;;5.90;3.40;;;;;;;18.48;45.60;101867.97;7393073;19;20032;-69
2023/05/25 11:10:56;;;;;;;12.75;3.97;;;;;;;18.51;46.15;101881.13;7394775;19;20012;-68
2023/05/25 11:13:40;;;;;;;7.18;3.83;;;;;;;18.48;45.37;101890.09;7391735;19;20021;-67
2023/05/25 11:16:16;;;;;;;12.75;4.28;;;;;;;18.47;45.92;101876.88;7396458;19;20013;-69
2023/05/25 11:18:45;;;;;;;10.25;4.78;;;;;;;18.42;45.44;101884.13;7401154;19;20020;-68
2023/05/25 11:21:17;;;;;;;9.45;4.85;;;;;;;18.42;45.80;101869.06;7398314;19;20011;-70
2023/05/25 11:23:56;;;;;;;10.95;5.00;;;;;;;18.56;46.33;101876.50;7399219;19;20022;-68
2023/05/25 11:26:28;;;;;;;10.50;4.07;;;;;;;18.76;45.29;101872.25;7403198;19;20078;-66
2023/05/25 11:28:58;;;;;;;10.70;4.22;;;;;;;18.97;45.18;101870.56;7398941;19;20510;-67
2023/05/25 11:31:31;;;;;;;8.57;3.85;;;;;;;19.16;43.54;101879.56;7400580;19;20050;-68
2023/05/25 11:34:01;;;;;;;6.37;3.77;;;;;;;19.32;43.97;101871.84;7398260;19;20021;-68